sensor_id;sensor_type;location;lat;lon;timestamp;P1;durP1;ratioP1;P2;durP2;ratioP2
32697;SDS011;19087;51.062;3.754;2022-09-27T00:01:05;6.70;;;1.90;;
32697;SDS011;19087;51.062;3.754;2022-09-27T00:03:33;17.80;;;2.58;;
32697;SDS011;19087;51.062;3.754;2022-09-27T00:06:11;9.77;;;2.50;;
32697;SDS011;19087;51.062;3.754;2022-09-27T00:08:39;10.02;;;2.10;;
32697;SDS011;19087;51.062;3.754;2022-09-27T00:11:06;3.35;;;1.25;;
32697;SDS011;19087;51.062;3.754;2022-09-27T00:13:37;13.57;;;1.88;;
32697;SDS011;19087;51.062;3.754;2022-09-27T00:16:03;5.47;;;1.48;;
32697;SDS011;19087;51.062;3.754;2022-09-27T00:18:29;7.30;;;1.95;;
32697;SDS011;19087;51.062;3.754;2022-09-27T00:21:02;7.55;;;1.45;;
32697;SDS011;19087;51.062;3.754;2022-09-27T00:23:30;8.27;;;1.42;;
32697;SDS011;19087;51.062;3.754;2022-09-27T00:25:56;9.40;;;1.80;;
32697;SDS011;19087;51.062;3.754;2022-09-27T00:28:23;4.93;;;1.42;;
32697;SDS011;19087;51.062;3.754;2022-09-27T00:30:49;7.00;;;1.70;;
32697;SDS011;19087;51.062;3.754;2022-09-27T00:33:15;8.70;;;1.42;;
32697;SDS011;19087;51.062;3.754;2022-09-27T00:35:41;5.47;;;1.63;;
32697;SDS011;19087;51.062;3.754;2022-09-27T00:38:08;7.88;;;1.38;;
32697;SDS011;19087;51.062;3.754;2022-09-27T00:40:34;5.80;;;1.17;;
32697;SDS011;19087;51.062;3.754;2022-09-27T00:43:01;14.35;;;2.08;;
32697;SDS011;19087;51.062;3.754;2022-09-27T00:45:26;8.52;;;1.58;;
32697;SDS011;19087;51.062;3.754;2022-09-27T00:47:57;13.95;;;1.83;;
32697;SDS011;19087;51.062;3.754;2022-09-27T00:50:32;12.57;;;3.50;;
32697;SDS011;19087;51.062;3.754;2022-09-27T00:53:11;9.05;;;1.60;;
32697;SDS011;19087;51.062;3.754;2022-09-27T00:55:52;7.43;;;1.42;;
32697;SDS011;19087;51.062;3.754;2022-09-27T00:58:22;8.30;;;1.37;;
32697;SDS011;19087;51.062;3.754;2022-09-27T01:00:54;3.55;;;1.05;;
32697;SDS011;19087;51.062;3.754;2022-09-27T01:06:13;6.32;;;1.65;;
32697;SDS011;19087;51.062;3.754;2022-09-27T01:08:40;4.65;;;1.20;;
32697;SDS011;19087;51.062;3.754;2022-09-27T01:13:54;6.47;;;1.42;;
32697;SDS011;19087;51.062;3.754;2022-09-27T01:17:02;6.25;;;1.80;;
32697;SDS011;19087;51.062;3.754;2022-09-27T01:26:04;6.63;;;1.50;;
32697;SDS011;19087;51.062;3.754;2022-09-27T01:28:57;6.57;;;1.77;;
32697;SDS011;19087;51.062;3.754;2022-09-27T01:34:43;11.32;;;1.65;;
32697;SDS011;19087;51.062;3.754;2022-09-27T01:39:55;14.50;;;2.53;;
32697;SDS011;19087;51.062;3.754;2022-09-27T01:43:05;10.10;;;2.13;;
32697;SDS011;19087;51.062;3.754;2022-09-27T01:45:47;11.43;;;2.20;;
32697;SDS011;19087;51.062;3.754;2022-09-27T01:48:23;6.20;;;1.67;;
32697;SDS011;19087;51.062;3.754;2022-09-27T01:50:58;9.30;;;1.95;;
32697;SDS011;19087;51.062;3.754;2022-09-27T01:53:39;10.93;;;2.22;;
32697;SDS011;19087;51.062;3.754;2022-09-27T01:56:09;9.80;;;2.28;;
32697;SDS011;19087;51.062;3.754;2022-09-27T02:01:16;8.57;;;2.38;;
32697;SDS011;19087;51.062;3.754;2022-09-27T02:03:48;9.82;;;2.42;;
32697;SDS011;19087;51.062;3.754;2022-09-27T02:06:20;7.18;;;2.15;;
32697;SDS011;19087;51.062;3.754;2022-09-27T02:08:51;8.25;;;2.22;;
32697;SDS011;19087;51.062;3.754;2022-09-27T02:11:24;7.78;;;2.17;;
32697;SDS011;19087;51.062;3.754;2022-09-27T02:19:11;10.57;;;2.38;;
32697;SDS011;19087;51.062;3.754;2022-09-27T02:24:20;10.05;;;2.15;;
32697;SDS011;19087;51.062;3.754;2022-09-27T02:26:57;6.57;;;2.03;;
32697;SDS011;19087;51.062;3.754;2022-09-27T02:29:50;7.22;;;1.90;;
32697;SDS011;19087;51.062;3.754;2022-09-27T02:32:22;8.10;;;2.05;;
32697;SDS011;19087;51.062;3.754;2022-09-27T02:34:48;11.20;;;2.03;;
32697;SDS011;19087;51.062;3.754;2022-09-27T02:37:16;10.95;;;2.65;;
32697;SDS011;19087;51.062;3.754;2022-09-27T02:39:42;5.95;;;2.28;;
32697;SDS011;19087;51.062;3.754;2022-09-27T02:42:08;13.68;;;2.50;;
32697;SDS011;19087;51.062;3.754;2022-09-27T02:44:34;9.13;;;2.60;;
32697;SDS011;19087;51.062;3.754;2022-09-27T02:47:11;6.55;;;1.85;;
32697;SDS011;19087;51.062;3.754;2022-09-27T02:55:00;4.35;;;1.30;;
32697;SDS011;19087;51.062;3.754;2022-09-27T03:05:36;9.07;;;2.10;;
32697;SDS011;19087;51.062;3.754;2022-09-27T03:08:07;9.98;;;1.70;;
32697;SDS011;19087;51.062;3.754;2022-09-27T03:10:34;7.35;;;2.75;;
32697;SDS011;19087;51.062;3.754;2022-09-27T03:12:59;9.68;;;1.90;;
32697;SDS011;19087;51.062;3.754;2022-09-27T03:15:25;4.20;;;1.38;;
32697;SDS011;19087;51.062;3.754;2022-09-27T03:17:51;12.90;;;1.85;;
32697;SDS011;19087;51.062;3.754;2022-09-27T03:20:17;7.20;;;1.45;;
32697;SDS011;19087;51.062;3.754;2022-09-27T03:22:42;5.22;;;1.10;;
32697;SDS011;19087;51.062;3.754;2022-09-27T03:25:08;5.00;;;1.42;;
32697;SDS011;19087;51.062;3.754;2022-09-27T03:27:34;8.57;;;1.20;;
32697;SDS011;19087;51.062;3.754;2022-09-27T03:29:59;7.05;;;1.60;;
32697;SDS011;19087;51.062;3.754;2022-09-27T03:32:25;3.65;;;1.20;;
32697;SDS011;19087;51.062;3.754;2022-09-27T03:34:51;6.95;;;1.45;;
32697;SDS011;19087;51.062;3.754;2022-09-27T03:37:19;5.35;;;1.67;;
32697;SDS011;19087;51.062;3.754;2022-09-27T03:39:45;13.25;;;1.58;;
32697;SDS011;19087;51.062;3.754;2022-09-27T03:42:11;9.73;;;1.85;;
32697;SDS011;19087;51.062;3.754;2022-09-27T03:44:37;7.70;;;2.03;;
32697;SDS011;19087;51.062;3.754;2022-09-27T03:47:02;4.55;;;1.25;;
32697;SDS011;19087;51.062;3.754;2022-09-27T03:49:28;5.53;;;1.48;;
32697;SDS011;19087;51.062;3.754;2022-09-27T03:51:54;6.07;;;1.70;;
32697;SDS011;19087;51.062;3.754;2022-09-27T03:54:19;8.27;;;2.80;;
32697;SDS011;19087;51.062;3.754;2022-09-27T03:56:45;6.15;;;2.25;;
32697;SDS011;19087;51.062;3.754;2022-09-27T03:59:10;7.20;;;2.58;;
32697;SDS011;19087;51.062;3.754;2022-09-27T04:01:36;5.22;;;2.42;;
32697;SDS011;19087;51.062;3.754;2022-09-27T04:04:03;8.45;;;3.03;;
32697;SDS011;19087;51.062;3.754;2022-09-27T04:06:29;9.65;;;2.58;;
32697;SDS011;19087;51.062;3.754;2022-09-27T04:08:55;6.90;;;2.67;;
32697;SDS011;19087;51.062;3.754;2022-09-27T04:11:20;6.05;;;2.30;;
32697;SDS011;19087;51.062;3.754;2022-09-27T04:13:48;7.35;;;2.20;;
32697;SDS011;19087;51.062;3.754;2022-09-27T04:16:13;8.32;;;2.88;;
32697;SDS011;19087;51.062;3.754;2022-09-27T04:18:40;7.70;;;2.78;;
32697;SDS011;19087;51.062;3.754;2022-09-27T04:21:06;8.68;;;2.30;;
32697;SDS011;19087;51.062;3.754;2022-09-27T04:23:33;10.20;;;2.95;;
32697;SDS011;19087;51.062;3.754;2022-09-27T04:25:59;7.85;;;4.30;;
32697;SDS011;19087;51.062;3.754;2022-09-27T04:28:24;5.43;;;2.42;;
32697;SDS011;19087;51.062;3.754;2022-09-27T04:30:52;6.57;;;2.53;;
32697;SDS011;19087;51.062;3.754;2022-09-27T04:33:18;4.15;;;1.60;;
32697;SDS011;19087;51.062;3.754;2022-09-27T04:35:43;7.05;;;2.00;;
32697;SDS011;19087;51.062;3.754;2022-09-27T04:38:28;8.35;;;2.83;;
32697;SDS011;19087;51.062;3.754;2022-09-27T04:40:54;5.43;;;2.30;;
32697;SDS011;19087;51.062;3.754;2022-09-27T04:43:19;6.20;;;2.22;;
32697;SDS011;19087;51.062;3.754;2022-09-27T04:45:45;5.40;;;2.00;;
32697;SDS011;19087;51.062;3.754;2022-09-27T04:48:11;14.88;;;2.72;;
32697;SDS011;19087;51.062;3.754;2022-09-27T04:50:37;3.70;;;2.05;;
32697;SDS011;19087;51.062;3.754;2022-09-27T04:53:03;6.63;;;2.35;;
32697;SDS011;19087;51.062;3.754;2022-09-27T04:55:29;7.53;;;2.55;;
32697;SDS011;19087;51.062;3.754;2022-09-27T04:57:55;8.32;;;3.10;;
32697;SDS011;19087;51.062;3.754;2022-09-27T05:00:21;6.55;;;2.90;;
32697;SDS011;19087;51.062;3.754;2022-09-27T05:02:47;12.30;;;4.28;;
32697;SDS011;19087;51.062;3.754;2022-09-27T05:05:14;13.65;;;4.60;;
32697;SDS011;19087;51.062;3.754;2022-09-27T05:07:40;12.43;;;4.32;;
32697;SDS011;19087;51.062;3.754;2022-09-27T05:10:06;10.85;;;4.07;;
32697;SDS011;19087;51.062;3.754;2022-09-27T05:12:33;7.53;;;3.40;;
32697;SDS011;19087;51.062;3.754;2022-09-27T05:14:59;6.65;;;3.45;;
32697;SDS011;19087;51.062;3.754;2022-09-27T05:17:25;6.43;;;2.80;;
32697;SDS011;19087;51.062;3.754;2022-09-27T05:19:51;7.35;;;2.78;;
32697;SDS011;19087;51.062;3.754;2022-09-27T05:22:16;10.52;;;4.25;;
32697;SDS011;19087;51.062;3.754;2022-09-27T05:24:43;9.27;;;3.22;;
32697;SDS011;19087;51.062;3.754;2022-09-27T05:27:09;4.93;;;2.45;;
32697;SDS011;19087;51.062;3.754;2022-09-27T05:29:40;5.97;;;2.50;;
32697;SDS011;19087;51.062;3.754;2022-09-27T05:32:06;5.95;;;2.53;;
32697;SDS011;19087;51.062;3.754;2022-09-27T05:34:32;8.43;;;2.92;;
32697;SDS011;19087;51.062;3.754;2022-09-27T05:36:58;7.55;;;2.90;;
32697;SDS011;19087;51.062;3.754;2022-09-27T05:39:24;8.23;;;2.70;;
32697;SDS011;19087;51.062;3.754;2022-09-27T05:41:49;5.85;;;2.42;;
32697;SDS011;19087;51.062;3.754;2022-09-27T05:44:15;8.95;;;2.75;;
32697;SDS011;19087;51.062;3.754;2022-09-27T05:46:41;6.22;;;2.97;;
32697;SDS011;19087;51.062;3.754;2022-09-27T05:49:07;6.95;;;2.72;;
32697;SDS011;19087;51.062;3.754;2022-09-27T05:51:33;6.75;;;2.67;;
32697;SDS011;19087;51.062;3.754;2022-09-27T05:53:58;7.03;;;2.80;;
32697;SDS011;19087;51.062;3.754;2022-09-27T05:56:24;10.63;;;3.40;;
32697;SDS011;19087;51.062;3.754;2022-09-27T05:58:50;8.70;;;2.70;;
32697;SDS011;19087;51.062;3.754;2022-09-27T06:01:16;5.95;;;2.80;;
32697;SDS011;19087;51.062;3.754;2022-09-27T06:03:42;6.65;;;2.88;;
32697;SDS011;19087;51.062;3.754;2022-09-27T06:06:09;16.70;;;3.60;;
32697;SDS011;19087;51.062;3.754;2022-09-27T06:08:35;6.00;;;2.72;;
32697;SDS011;19087;51.062;3.754;2022-09-27T06:11:05;9.73;;;2.63;;
32697;SDS011;19087;51.062;3.754;2022-09-27T06:13:33;6.78;;;3.00;;
32697;SDS011;19087;51.062;3.754;2022-09-27T06:16:03;7.78;;;3.22;;
32697;SDS011;19087;51.062;3.754;2022-09-27T06:18:30;5.85;;;2.58;;
32697;SDS011;19087;51.062;3.754;2022-09-27T06:20:59;9.23;;;3.40;;
32697;SDS011;19087;51.062;3.754;2022-09-27T06:23:26;9.82;;;3.40;;
32697;SDS011;19087;51.062;3.754;2022-09-27T06:25:52;15.73;;;5.05;;
32697;SDS011;19087;51.062;3.754;2022-09-27T06:28:18;16.13;;;4.57;;
32697;SDS011;19087;51.062;3.754;2022-09-27T06:30:46;8.63;;;3.25;;
32697;SDS011;19087;51.062;3.754;2022-09-27T06:33:16;9.27;;;3.58;;
32697;SDS011;19087;51.062;3.754;2022-09-27T06:35:43;9.65;;;2.45;;
32697;SDS011;19087;51.062;3.754;2022-09-27T06:38:11;8.88;;;2.95;;
32697;SDS011;19087;51.062;3.754;2022-09-27T06:40:40;15.32;;;3.70;;
32697;SDS011;19087;51.062;3.754;2022-09-27T06:43:09;9.15;;;3.42;;
32697;SDS011;19087;51.062;3.754;2022-09-27T06:45:37;9.13;;;3.72;;
32697;SDS011;19087;51.062;3.754;2022-09-27T06:48:03;15.90;;;4.80;;
32697;SDS011;19087;51.062;3.754;2022-09-27T06:50:31;9.15;;;3.83;;
32697;SDS011;19087;51.062;3.754;2022-09-27T06:52:59;11.32;;;4.07;;
32697;SDS011;19087;51.062;3.754;2022-09-27T06:55:25;14.02;;;4.85;;
32697;SDS011;19087;51.062;3.754;2022-09-27T06:57:57;5.90;;;3.88;;
32697;SDS011;19087;51.062;3.754;2022-09-27T07:00:42;7.57;;;4.18;;
32697;SDS011;19087;51.062;3.754;2022-09-27T07:03:11;8.82;;;3.92;;
32697;SDS011;19087;51.062;3.754;2022-09-27T07:05:38;9.25;;;4.28;;
32697;SDS011;19087;51.062;3.754;2022-09-27T07:08:10;10.93;;;4.55;;
32697;SDS011;19087;51.062;3.754;2022-09-27T07:10:36;13.55;;;5.07;;
32697;SDS011;19087;51.062;3.754;2022-09-27T07:13:04;9.30;;;3.80;;
32697;SDS011;19087;51.062;3.754;2022-09-27T07:15:32;5.82;;;3.30;;
32697;SDS011;19087;51.062;3.754;2022-09-27T07:18:01;10.02;;;3.80;;
32697;SDS011;19087;51.062;3.754;2022-09-27T07:20:28;10.75;;;4.03;;
32697;SDS011;19087;51.062;3.754;2022-09-27T07:22:55;9.55;;;3.33;;
32697;SDS011;19087;51.062;3.754;2022-09-27T07:25:22;12.15;;;4.65;;
32697;SDS011;19087;51.062;3.754;2022-09-27T07:27:48;12.38;;;5.13;;
32697;SDS011;19087;51.062;3.754;2022-09-27T07:30:14;15.48;;;5.03;;
32697;SDS011;19087;51.062;3.754;2022-09-27T07:32:41;10.02;;;3.80;;
32697;SDS011;19087;51.062;3.754;2022-09-27T07:35:07;8.63;;;3.22;;
32697;SDS011;19087;51.062;3.754;2022-09-27T07:37:34;8.05;;;2.90;;
32697;SDS011;19087;51.062;3.754;2022-09-27T07:40:01;8.80;;;2.80;;
32697;SDS011;19087;51.062;3.754;2022-09-27T07:42:30;8.52;;;2.17;;
32697;SDS011;19087;51.062;3.754;2022-09-27T07:44:56;6.93;;;2.20;;
32697;SDS011;19087;51.062;3.754;2022-09-27T07:47:22;6.25;;;2.25;;
32697;SDS011;19087;51.062;3.754;2022-09-27T07:49:49;4.32;;;2.33;;
32697;SDS011;19087;51.062;3.754;2022-09-27T07:52:17;5.47;;;1.80;;
32697;SDS011;19087;51.062;3.754;2022-09-27T07:54:43;3.42;;;2.10;;
32697;SDS011;19087;51.062;3.754;2022-09-27T07:57:09;6.07;;;2.17;;
32697;SDS011;19087;51.062;3.754;2022-09-27T07:59:35;5.75;;;2.42;;
32697;SDS011;19087;51.062;3.754;2022-09-27T08:02:01;5.50;;;2.28;;
32697;SDS011;19087;51.062;3.754;2022-09-27T08:04:26;9.57;;;2.13;;
32697;SDS011;19087;51.062;3.754;2022-09-27T08:06:53;6.28;;;2.78;;
32697;SDS011;19087;51.062;3.754;2022-09-27T08:09:18;7.43;;;2.03;;
32697;SDS011;19087;51.062;3.754;2022-09-27T08:11:44;5.45;;;1.70;;
32697;SDS011;19087;51.062;3.754;2022-09-27T08:14:10;9.32;;;2.13;;
32697;SDS011;19087;51.062;3.754;2022-09-27T08:16:36;5.38;;;1.98;;
32697;SDS011;19087;51.062;3.754;2022-09-27T08:19:02;7.82;;;2.42;;
32697;SDS011;19087;51.062;3.754;2022-09-27T08:21:27;7.63;;;2.20;;
32697;SDS011;19087;51.062;3.754;2022-09-27T08:23:54;11.52;;;4.32;;
32697;SDS011;19087;51.062;3.754;2022-09-27T08:26:20;7.13;;;2.95;;
32697;SDS011;19087;51.062;3.754;2022-09-27T08:28:47;12.50;;;2.90;;
32697;SDS011;19087;51.062;3.754;2022-09-27T08:31:12;12.88;;;3.00;;
32697;SDS011;19087;51.062;3.754;2022-09-27T08:33:38;7.95;;;3.17;;
32697;SDS011;19087;51.062;3.754;2022-09-27T08:36:09;12.02;;;3.40;;
32697;SDS011;19087;51.062;3.754;2022-09-27T08:38:36;13.18;;;4.18;;
32697;SDS011;19087;51.062;3.754;2022-09-27T08:41:06;11.35;;;3.75;;
32697;SDS011;19087;51.062;3.754;2022-09-27T08:49:25;16.58;;;4.80;;
32697;SDS011;19087;51.062;3.754;2022-09-27T08:51:59;10.73;;;3.95;;
32697;SDS011;19087;51.062;3.754;2022-09-27T08:54:29;14.40;;;4.18;;
32697;SDS011;19087;51.062;3.754;2022-09-27T08:56:56;10.63;;;4.18;;
32697;SDS011;19087;51.062;3.754;2022-09-27T08:59:39;11.43;;;4.05;;
32697;SDS011;19087;51.062;3.754;2022-09-27T09:02:17;18.45;;;5.43;;
32697;SDS011;19087;51.062;3.754;2022-09-27T09:04:45;16.60;;;4.80;;
32697;SDS011;19087;51.062;3.754;2022-09-27T09:13:00;12.73;;;4.30;;
32697;SDS011;19087;51.062;3.754;2022-09-27T09:15:51;14.18;;;3.88;;
32697;SDS011;19087;51.062;3.754;2022-09-27T09:26:35;14.70;;;3.38;;
32697;SDS011;19087;51.062;3.754;2022-09-27T09:29:17;8.15;;;2.40;;
32697;SDS011;19087;51.062;3.754;2022-09-27T09:32:07;12.13;;;2.38;;
32697;SDS011;19087;51.062;3.754;2022-09-27T09:34:59;9.00;;;1.70;;
32697;SDS011;19087;51.062;3.754;2022-09-27T09:37:38;11.82;;;2.33;;
32697;SDS011;19087;51.062;3.754;2022-09-27T09:42:45;9.57;;;2.20;;
32697;SDS011;19087;51.062;3.754;2022-09-27T09:45:17;5.22;;;1.80;;
32697;SDS011;19087;51.062;3.754;2022-09-27T09:47:48;4.30;;;1.50;;
32697;SDS011;19087;51.062;3.754;2022-09-27T09:50:22;8.20;;;1.83;;
32697;SDS011;19087;51.062;3.754;2022-09-27T09:53:10;8.90;;;1.50;;
32697;SDS011;19087;51.062;3.754;2022-09-27T09:55:48;9.18;;;2.33;;
32697;SDS011;19087;51.062;3.754;2022-09-27T10:01:08;7.63;;;2.33;;
32697;SDS011;19087;51.062;3.754;2022-09-27T10:03:38;7.47;;;1.60;;
32697;SDS011;19087;51.062;3.754;2022-09-27T10:06:04;8.70;;;1.77;;
32697;SDS011;19087;51.062;3.754;2022-09-27T10:08:30;5.07;;;1.60;;
32697;SDS011;19087;51.062;3.754;2022-09-27T10:10:57;7.22;;;1.80;;
32697;SDS011;19087;51.062;3.754;2022-09-27T10:13:22;7.55;;;4.97;;
32697;SDS011;19087;51.062;3.754;2022-09-27T10:18:26;7.55;;;1.58;;
32697;SDS011;19087;51.062;3.754;2022-09-27T10:20:56;7.55;;;1.30;;
32697;SDS011;19087;51.062;3.754;2022-09-27T10:23:25;4.47;;;1.25;;
32697;SDS011;19087;51.062;3.754;2022-09-27T10:25:53;4.68;;;1.15;;
32697;SDS011;19087;51.062;3.754;2022-09-27T10:28:29;4.65;;;1.20;;
32697;SDS011;19087;51.062;3.754;2022-09-27T10:31:11;7.55;;;1.27;;
32697;SDS011;19087;51.062;3.754;2022-09-27T10:36:31;8.02;;;2.40;;
32697;SDS011;19087;51.062;3.754;2022-09-27T10:39:00;5.72;;;1.55;;
32697;SDS011;19087;51.062;3.754;2022-09-27T10:46:39;6.30;;;1.55;;
32697;SDS011;19087;51.062;3.754;2022-09-27T10:49:16;7.70;;;1.38;;
32697;SDS011;19087;51.062;3.754;2022-09-27T10:51:50;4.90;;;1.50;;
32697;SDS011;19087;51.062;3.754;2022-09-27T10:54:20;3.53;;;1.17;;
32697;SDS011;19087;51.062;3.754;2022-09-27T10:56:59;5.20;;;1.42;;
32697;SDS011;19087;51.062;3.754;2022-09-27T10:59:30;4.03;;;1.45;;
32697;SDS011;19087;51.062;3.754;2022-09-27T11:01:59;5.30;;;1.60;;
32697;SDS011;19087;51.062;3.754;2022-09-27T11:04:35;6.20;;;1.33;;
32697;SDS011;19087;51.062;3.754;2022-09-27T11:07:13;5.72;;;1.77;;
32697;SDS011;19087;51.062;3.754;2022-09-27T11:09:46;4.97;;;1.40;;
32697;SDS011;19087;51.062;3.754;2022-09-27T11:12:14;8.95;;;1.38;;
32697;SDS011;19087;51.062;3.754;2022-09-27T11:14:50;5.75;;;1.75;;
32697;SDS011;19087;51.062;3.754;2022-09-27T11:20:13;7.15;;;1.90;;
32697;SDS011;19087;51.062;3.754;2022-09-27T11:23:14;3.42;;;1.40;;
32697;SDS011;19087;51.062;3.754;2022-09-27T11:25:57;9.02;;;1.63;;
32697;SDS011;19087;51.062;3.754;2022-09-27T11:37:11;8.57;;;2.15;;
32697;SDS011;19087;51.062;3.754;2022-09-27T11:39:53;6.97;;;1.77;;
32697;SDS011;19087;51.062;3.754;2022-09-27T11:47:58;6.57;;;2.15;;
32697;SDS011;19087;51.062;3.754;2022-09-27T11:50:47;7.47;;;1.98;;
32697;SDS011;19087;51.062;3.754;2022-09-27T11:58:59;9.75;;;1.90;;
32697;SDS011;19087;51.062;3.754;2022-09-27T12:09:58;13.25;;;2.72;;
32697;SDS011;19087;51.062;3.754;2022-09-27T12:12:29;15.60;;;2.17;;
32697;SDS011;19087;51.062;3.754;2022-09-27T12:15:44;6.78;;;1.85;;
32697;SDS011;19087;51.062;3.754;2022-09-27T12:17:51;14.25;;;2.78;;
32697;SDS011;19087;51.062;3.754;2022-09-27T12:25:21;9.15;;;2.70;;
32697;SDS011;19087;51.062;3.754;2022-09-27T12:27:51;10.55;;;2.63;;
32697;SDS011;19087;51.062;3.754;2022-09-27T12:30:40;13.15;;;2.88;;
32697;SDS011;19087;51.062;3.754;2022-09-27T12:33:36;6.57;;;2.40;;
32697;SDS011;19087;51.062;3.754;2022-09-27T12:36:07;10.20;;;2.47;;
32697;SDS011;19087;51.062;3.754;2022-09-27T12:41:06;15.70;;;3.22;;
32697;SDS011;19087;51.062;3.754;2022-09-27T12:43:34;7.65;;;2.42;;
32697;SDS011;19087;51.062;3.754;2022-09-27T12:51:11;14.23;;;3.75;;
32697;SDS011;19087;51.062;3.754;2022-09-27T13:13:34;5.90;;;1.90;;
32697;SDS011;19087;51.062;3.754;2022-09-27T13:16:04;6.10;;;1.67;;
32697;SDS011;19087;51.062;3.754;2022-09-27T13:18:49;3.20;;;1.05;;
32697;SDS011;19087;51.062;3.754;2022-09-27T13:24:53;2.95;;;1.10;;
32697;SDS011;19087;51.062;3.754;2022-09-27T13:29:50;11.50;;;1.83;;
32697;SDS011;19087;51.062;3.754;2022-09-27T13:32:36;9.25;;;1.98;;
32697;SDS011;19087;51.062;3.754;2022-09-27T13:35:16;4.97;;;1.52;;
32697;SDS011;19087;51.062;3.754;2022-09-27T13:42:45;4.13;;;1.20;;
32697;SDS011;19087;51.062;3.754;2022-09-27T13:47:57;5.35;;;1.88;;
32697;SDS011;19087;51.062;3.754;2022-09-27T13:50:27;5.28;;;1.70;;
32697;SDS011;19087;51.062;3.754;2022-09-27T13:53:25;4.93;;;1.50;;
32697;SDS011;19087;51.062;3.754;2022-09-27T13:55:52;7.15;;;1.55;;
32697;SDS011;19087;51.062;3.754;2022-09-27T14:00:48;6.20;;;1.55;;
32697;SDS011;19087;51.062;3.754;2022-09-27T14:03:17;4.80;;;1.60;;
32697;SDS011;19087;51.062;3.754;2022-09-27T14:05:50;6.72;;;1.50;;
32697;SDS011;19087;51.062;3.754;2022-09-27T14:08:28;7.53;;;1.73;;
32697;SDS011;19087;51.062;3.754;2022-09-27T14:10:59;7.63;;;1.70;;
32697;SDS011;19087;51.062;3.754;2022-09-27T14:13:27;5.20;;;1.50;;
32697;SDS011;19087;51.062;3.754;2022-09-27T14:15:56;10.30;;;2.13;;
32697;SDS011;19087;51.062;3.754;2022-09-27T14:18:24;8.90;;;1.70;;
32697;SDS011;19087;51.062;3.754;2022-09-27T14:20:50;7.50;;;2.63;;
32697;SDS011;19087;51.062;3.754;2022-09-27T14:23:17;6.68;;;2.03;;
32697;SDS011;19087;51.062;3.754;2022-09-27T14:25:46;7.22;;;2.25;;
32697;SDS011;19087;51.062;3.754;2022-09-27T14:28:21;6.15;;;2.75;;
32697;SDS011;19087;51.062;3.754;2022-09-27T14:33:42;3.42;;;1.80;;
32697;SDS011;19087;51.062;3.754;2022-09-27T14:36:51;4.00;;;1.60;;
32697;SDS011;19087;51.062;3.754;2022-09-27T14:39:21;4.32;;;1.35;;
32697;SDS011;19087;51.062;3.754;2022-09-27T14:41:55;3.60;;;1.52;;
32697;SDS011;19087;51.062;3.754;2022-09-27T14:44:21;4.47;;;1.55;;
32697;SDS011;19087;51.062;3.754;2022-09-27T14:46:47;3.08;;;1.30;;
32697;SDS011;19087;51.062;3.754;2022-09-27T14:49:59;6.63;;;1.17;;
32697;SDS011;19087;51.062;3.754;2022-09-27T14:52:29;3.13;;;1.33;;
32697;SDS011;19087;51.062;3.754;2022-09-27T14:57:31;5.40;;;1.23;;
32697;SDS011;19087;51.062;3.754;2022-09-27T15:00:00;5.53;;;1.30;;
32697;SDS011;19087;51.062;3.754;2022-09-27T15:02:39;3.72;;;1.58;;
32697;SDS011;19087;51.062;3.754;2022-09-27T15:05:17;5.60;;;1.60;;
32697;SDS011;19087;51.062;3.754;2022-09-27T15:07:46;3.17;;;1.30;;
32697;SDS011;19087;51.062;3.754;2022-09-27T15:10:16;8.00;;;1.70;;
32697;SDS011;19087;51.062;3.754;2022-09-27T15:12:44;7.18;;;2.05;;
32697;SDS011;19087;51.062;3.754;2022-09-27T15:15:14;7.20;;;1.95;;
32697;SDS011;19087;51.062;3.754;2022-09-27T15:17:44;6.07;;;2.45;;
32697;SDS011;19087;51.062;3.754;2022-09-27T15:20:33;7.50;;;2.40;;
32697;SDS011;19087;51.062;3.754;2022-09-27T15:23:00;5.78;;;1.70;;
32697;SDS011;19087;51.062;3.754;2022-09-27T15:25:28;6.65;;;2.03;;
32697;SDS011;19087;51.062;3.754;2022-09-27T15:28:21;6.88;;;2.13;;
32697;SDS011;19087;51.062;3.754;2022-09-27T15:30:53;6.53;;;2.00;;
32697;SDS011;19087;51.062;3.754;2022-09-27T15:33:25;8.25;;;2.58;;
32697;SDS011;19087;51.062;3.754;2022-09-27T15:35:56;7.45;;;3.10;;
32697;SDS011;19087;51.062;3.754;2022-09-27T15:43:33;11.00;;;3.90;;
32697;SDS011;19087;51.062;3.754;2022-09-27T15:46:25;10.93;;;3.33;;
32697;SDS011;19087;51.062;3.754;2022-09-27T15:51:54;12.43;;;4.45;;
32697;SDS011;19087;51.062;3.754;2022-09-27T15:54:21;15.90;;;4.00;;
32697;SDS011;19087;51.062;3.754;2022-09-27T15:56:50;15.50;;;3.90;;
32697;SDS011;19087;51.062;3.754;2022-09-27T15:59:24;11.57;;;3.88;;
32697;SDS011;19087;51.062;3.754;2022-09-27T16:01:53;9.15;;;3.85;;
32697;SDS011;19087;51.062;3.754;2022-09-27T16:04:23;13.80;;;4.80;;
32697;SDS011;19087;51.062;3.754;2022-09-27T16:06:50;12.13;;;4.22;;
32697;SDS011;19087;51.062;3.754;2022-09-27T16:09:18;13.10;;;4.63;;
32697;SDS011;19087;51.062;3.754;2022-09-27T16:11:48;19.20;;;4.32;;
32697;SDS011;19087;51.062;3.754;2022-09-27T16:14:14;14.35;;;3.55;;
32697;SDS011;19087;51.062;3.754;2022-09-27T16:16:43;12.45;;;3.20;;
32697;SDS011;19087;51.062;3.754;2022-09-27T16:19:20;13.48;;;3.97;;
32697;SDS011;19087;51.062;3.754;2022-09-27T16:21:46;14.95;;;3.80;;
32697;SDS011;19087;51.062;3.754;2022-09-27T16:24:13;10.00;;;2.97;;
32697;SDS011;19087;51.062;3.754;2022-09-27T16:26:39;12.30;;;3.35;;
32697;SDS011;19087;51.062;3.754;2022-09-27T16:29:14;9.65;;;4.05;;
32697;SDS011;19087;51.062;3.754;2022-09-27T16:31:40;19.40;;;4.97;;
32697;SDS011;19087;51.062;3.754;2022-09-27T16:34:09;9.48;;;4.60;;
32697;SDS011;19087;51.062;3.754;2022-09-27T16:36:35;13.93;;;4.85;;
32697;SDS011;19087;51.062;3.754;2022-09-27T16:39:01;14.20;;;6.55;;
32697;SDS011;19087;51.062;3.754;2022-09-27T16:41:30;17.00;;;4.85;;
32697;SDS011;19087;51.062;3.754;2022-09-27T16:43:57;23.23;;;7.50;;
32697;SDS011;19087;51.062;3.754;2022-09-27T16:46:24;16.10;;;6.75;;
32697;SDS011;19087;51.062;3.754;2022-09-27T16:48:49;11.35;;;4.25;;
32697;SDS011;19087;51.062;3.754;2022-09-27T16:51:16;12.68;;;4.55;;
32697;SDS011;19087;51.062;3.754;2022-09-27T16:54:02;12.88;;;4.03;;
32697;SDS011;19087;51.062;3.754;2022-09-27T16:56:32;15.38;;;4.68;;
32697;SDS011;19087;51.062;3.754;2022-09-27T16:58:59;10.80;;;3.97;;
32697;SDS011;19087;51.062;3.754;2022-09-27T17:01:27;14.82;;;4.82;;
32697;SDS011;19087;51.062;3.754;2022-09-27T17:03:53;18.42;;;4.78;;
32697;SDS011;19087;51.062;3.754;2022-09-27T17:06:21;16.02;;;3.63;;
32697;SDS011;19087;51.062;3.754;2022-09-27T17:08:47;13.05;;;3.72;;
32697;SDS011;19087;51.062;3.754;2022-09-27T17:11:13;30.92;;;5.47;;
32697;SDS011;19087;51.062;3.754;2022-09-27T17:13:41;12.50;;;3.53;;
32697;SDS011;19087;51.062;3.754;2022-09-27T17:16:08;11.75;;;3.60;;
32697;SDS011;19087;51.062;3.754;2022-09-27T17:18:35;13.00;;;3.33;;
32697;SDS011;19087;51.062;3.754;2022-09-27T17:21:03;7.50;;;2.42;;
32697;SDS011;19087;51.062;3.754;2022-09-27T17:23:30;6.70;;;2.03;;
32697;SDS011;19087;51.062;3.754;2022-09-27T17:26:00;4.43;;;1.75;;
32697;SDS011;19087;51.062;3.754;2022-09-27T17:28:28;4.10;;;1.67;;
32697;SDS011;19087;51.062;3.754;2022-09-27T17:31:00;3.67;;;1.58;;
32697;SDS011;19087;51.062;3.754;2022-09-27T17:33:38;7.28;;;2.30;;
32697;SDS011;19087;51.062;3.754;2022-09-27T17:36:08;7.88;;;2.40;;
32697;SDS011;19087;51.062;3.754;2022-09-27T17:38:39;6.28;;;2.60;;
32697;SDS011;19087;51.062;3.754;2022-09-27T17:41:07;5.68;;;1.98;;
32697;SDS011;19087;51.062;3.754;2022-09-27T17:43:35;5.38;;;1.58;;
32697;SDS011;19087;51.062;3.754;2022-09-27T17:46:03;4.47;;;1.98;;
32697;SDS011;19087;51.062;3.754;2022-09-27T17:48:31;5.60;;;2.20;;
32697;SDS011;19087;51.062;3.754;2022-09-27T17:51:16;7.90;;;2.45;;
32697;SDS011;19087;51.062;3.754;2022-09-27T17:53:41;4.40;;;2.35;;